createdAt,value
2023-06-05T00:01:49.491Z,8.15
2023-06-05T00:04:19.546Z,8.15
2023-06-05T00:06:50.233Z,8.15
2023-06-05T00:09:20.120Z,8.10
2023-06-05T00:11:50.050Z,8.07
2023-06-05T00:14:19.891Z,7.98
2023-06-05T00:16:51.467Z,7.98
2023-06-05T00:19:21.530Z,7.98
2023-06-05T00:21:54.145Z,7.97
2023-06-05T00:24:23.723Z,7.85
2023-06-05T00:26:53.856Z,7.89
2023-06-05T00:29:23.643Z,7.88
2023-06-05T00:31:54.871Z,7.85
2023-06-05T00:34:23.835Z,7.83
2023-06-05T00:36:54.862Z,7.81
2023-06-05T00:39:25.774Z,7.80
2023-06-05T00:41:56.053Z,7.80
2023-06-05T00:44:25.980Z,7.78
2023-06-05T00:46:56.008Z,7.76
2023-06-05T00:49:26.696Z,7.74
2023-06-05T00:51:56.465Z,7.71
2023-06-05T00:54:27.036Z,7.69
2023-06-05T00:56:56.922Z,7.69
2023-06-05T00:59:28.020Z,7.65
2023-06-05T01:01:57.857Z,7.62
2023-06-05T01:04:28.240Z,7.58
2023-06-05T01:07:01.093Z,7.53
2023-06-05T01:09:30.328Z,7.48
2023-06-05T01:12:15.033Z,7.46
2023-06-05T01:14:50.243Z,7.39
2023-06-05T01:17:20.790Z,7.36
2023-06-05T01:19:51.749Z,7.35
2023-06-05T01:22:20.546Z,7.32
2023-06-05T01:24:50.321Z,7.34
2023-06-05T01:27:22.987Z,7.34
2023-06-05T01:30:05.627Z,7.31
2023-06-05T01:32:42.141Z,7.30
2023-06-05T01:35:14.955Z,7.27
2023-06-05T01:37:48.614Z,7.25
2023-06-05T01:40:20.982Z,7.20
2023-06-05T01:42:52.193Z,7.19
2023-06-05T01:45:24.112Z,7.17
2023-06-05T01:47:55.941Z,7.16
2023-06-05T01:50:26.101Z,7.14
2023-06-05T01:52:56.600Z,7.11
2023-06-05T01:55:27.851Z,7.10
2023-06-05T01:57:57.935Z,7.12
2023-06-05T02:00:28.415Z,7.11
2023-06-05T02:02:58.510Z,7.10
2023-06-05T02:05:30.940Z,7.09
2023-06-05T02:08:03.386Z,7.08
2023-06-05T02:10:34.257Z,7.03
2023-06-05T02:13:05.564Z,6.94
2023-06-05T02:15:36.112Z,6.94
2023-06-05T02:18:09.005Z,6.92
2023-06-05T02:20:39.039Z,7.05
2023-06-05T02:23:09.235Z,7.00
2023-06-05T02:25:38.847Z,6.90
2023-06-05T02:28:08.710Z,6.88
2023-06-05T02:30:38.549Z,6.84
2023-06-05T02:33:10.112Z,6.77
2023-06-05T02:35:40.813Z,6.72
2023-06-05T02:38:12.577Z,6.73
2023-06-05T02:40:42.423Z,6.75
2023-06-05T02:43:12.942Z,6.72
2023-06-05T02:45:42.890Z,6.67
2023-06-05T02:48:12.815Z,6.70
2023-06-05T02:50:42.803Z,6.71
2023-06-05T02:53:13.300Z,6.72
2023-06-05T02:55:43.527Z,6.73
2023-06-05T02:58:16.986Z,6.72
2023-06-05T03:00:48.562Z,6.71
2023-06-05T03:03:18.527Z,6.67
2023-06-05T03:05:49.536Z,6.72
2023-06-05T03:08:19.619Z,6.73
2023-06-05T03:10:49.537Z,6.73
2023-06-05T03:13:19.547Z,6.75
2023-06-05T03:15:50.128Z,6.76
2023-06-05T03:18:20.804Z,6.78
2023-06-05T03:20:52.344Z,6.82
2023-06-05T03:23:24.534Z,6.94
2023-06-05T03:25:55.703Z,6.94
2023-06-05T03:28:26.025Z,7.02
2023-06-05T03:30:57.644Z,7.02
2023-06-05T03:33:28.745Z,7.05
2023-06-05T03:35:58.931Z,7.09
2023-06-05T03:38:28.848Z,7.17
2023-06-05T03:40:58.846Z,7.23
2023-06-05T03:43:28.705Z,7.14
2023-06-05T03:45:59.749Z,7.23
2023-06-05T03:48:29.633Z,7.39
2023-06-05T03:51:01.753Z,7.51
2023-06-05T03:53:31.848Z,7.66
2023-06-05T03:56:02.036Z,7.82
2023-06-05T03:58:33.651Z,8.06
2023-06-05T04:01:04.831Z,8.30
2023-06-05T04:03:36.423Z,8.60
2023-06-05T04:06:09.295Z,8.93
2023-06-05T04:08:39.207Z,9.17
2023-06-05T04:11:09.495Z,9.38
2023-06-05T04:13:39.451Z,9.52
2023-06-05T04:16:10.165Z,9.72
2023-06-05T04:18:39.171Z,9.80
2023-06-05T04:21:09.026Z,10.12
2023-06-05T04:23:39.081Z,10.38
2023-06-05T04:26:08.900Z,10.50
2023-06-05T04:28:39.463Z,10.87
2023-06-05T04:31:09.624Z,11.12
2023-06-05T04:33:40.023Z,11.49
2023-06-05T04:36:09.689Z,11.80
2023-06-05T04:38:40.813Z,12.12
2023-06-05T04:41:12.031Z,12.49
2023-06-05T04:43:41.328Z,12.76
2023-06-05T04:46:11.023Z,13.00
2023-06-05T04:48:41.292Z,13.50
2023-06-05T04:51:12.935Z,13.64
2023-06-05T04:53:43.646Z,13.97
2023-06-05T04:56:13.453Z,14.23
2023-06-05T04:58:43.433Z,14.48
2023-06-05T05:01:14.484Z,14.81
2023-06-05T05:03:46.193Z,14.97
2023-06-05T05:06:20.464Z,14.98
2023-06-05T05:08:51.404Z,14.75
2023-06-05T05:11:21.914Z,15.28
2023-06-05T05:13:53.651Z,15.43
2023-06-05T05:16:23.736Z,15.14
2023-06-05T05:18:53.579Z,15.69
2023-06-05T05:21:23.725Z,15.88
2023-06-05T05:23:53.625Z,16.10
2023-06-05T05:26:23.206Z,16.28
2023-06-05T05:28:53.297Z,16.67
2023-06-05T05:31:24.126Z,16.70
2023-06-05T05:33:56.147Z,16.79
2023-06-05T05:36:27.498Z,16.90
2023-06-05T05:38:57.626Z,17.09
2023-06-05T05:41:27.806Z,17.21
2023-06-05T05:43:57.760Z,17.26
2023-06-05T05:46:28.028Z,17.59
2023-06-05T05:48:57.886Z,17.70
2023-06-05T05:51:28.052Z,17.83
2023-06-05T05:53:57.946Z,17.57
2023-06-05T05:56:28.918Z,17.57
2023-06-05T05:58:58.810Z,17.84
2023-06-05T06:01:29.137Z,17.85
2023-06-05T06:03:58.977Z,18.30
2023-06-05T06:06:28.778Z,18.47
2023-06-05T06:08:58.624Z,18.58
2023-06-05T06:11:28.569Z,18.44
2023-06-05T06:13:58.549Z,18.70
2023-06-05T06:16:28.609Z,18.90
2023-06-05T06:19:00.736Z,18.79
2023-06-05T06:21:30.459Z,19.11
2023-06-05T06:24:00.409Z,19.24
2023-06-05T06:26:32.118Z,19.26
2023-06-05T06:29:02.056Z,19.50
2023-06-05T06:31:32.077Z,19.61
2023-06-05T06:34:02.095Z,19.55
2023-06-05T06:36:31.936Z,20.00
2023-06-05T06:39:02.118Z,19.83
2023-06-05T06:41:31.949Z,20.03
2023-06-05T06:44:03.330Z,20.38
2023-06-05T06:46:34.133Z,20.27
2023-06-05T06:49:05.161Z,19.94
2023-06-05T06:51:34.173Z,19.73
2023-06-05T06:54:03.638Z,19.95
2023-06-05T06:56:33.797Z,20.48
2023-06-05T06:59:05.146Z,20.86
2023-06-05T07:01:36.410Z,21.06
2023-06-05T07:04:06.466Z,21.06
2023-06-05T07:06:36.349Z,21.33
2023-06-05T07:09:06.460Z,21.46
2023-06-05T07:11:36.404Z,21.50
2023-06-05T07:14:06.730Z,21.54
2023-06-05T07:16:36.527Z,21.53
2023-06-05T07:19:06.505Z,20.97
2023-06-05T07:21:39.035Z,21.45
2023-06-05T07:24:09.374Z,21.37
2023-06-05T07:26:39.033Z,21.55
2023-06-05T07:29:08.629Z,21.75
2023-06-05T07:31:40.182Z,22.15
2023-06-05T07:34:10.132Z,22.08
2023-06-05T07:36:40.189Z,22.26
2023-06-05T07:39:10.921Z,22.57
2023-06-05T07:41:43.706Z,21.91
2023-06-05T07:44:15.145Z,22.22
2023-06-05T07:46:46.323Z,22.22
2023-06-05T07:49:17.688Z,22.77
2023-06-05T07:51:49.625Z,22.17
2023-06-05T07:54:20.578Z,22.87
2023-06-05T07:56:52.527Z,22.47
2023-06-05T07:59:24.244Z,22.88
2023-06-05T08:01:54.422Z,23.58
2023-06-05T08:04:26.565Z,23.61
2023-06-05T08:06:57.393Z,22.66
2023-06-05T08:09:26.330Z,23.68
2023-06-05T08:11:56.309Z,23.73
2023-06-05T08:14:26.720Z,23.96
2023-06-05T08:16:56.989Z,23.74
2023-06-05T08:19:26.646Z,24.14
2023-06-05T08:21:57.931Z,23.89
2023-06-05T08:24:29.522Z,23.92
2023-06-05T08:27:00.748Z,23.90
2023-06-05T08:29:30.077Z,23.63
2023-06-05T08:31:59.906Z,23.14
2023-06-05T08:34:30.038Z,23.84
2023-06-05T08:37:00.160Z,24.37
2023-06-05T08:39:32.009Z,24.44
2023-06-05T08:42:04.478Z,24.98
2023-06-05T08:44:34.396Z,24.98
2023-06-05T08:47:06.469Z,25.08
2023-06-05T08:49:37.976Z,25.07
2023-06-05T08:52:10.616Z,24.45
2023-06-05T08:54:42.202Z,24.72
2023-06-05T08:57:11.909Z,24.33
2023-06-05T08:59:43.180Z,24.56
2023-06-05T09:02:13.247Z,25.21
2023-06-05T09:04:42.830Z,25.29
2023-06-05T09:07:14.474Z,25.48
2023-06-05T09:09:46.454Z,25.13
2023-06-05T09:12:16.007Z,25.10
2023-06-05T09:14:45.895Z,24.63
2023-06-05T09:17:17.740Z,24.28
2023-06-05T09:19:48.394Z,25.14
2023-06-05T09:22:20.230Z,24.59
2023-06-05T09:24:53.181Z,24.73
2023-06-05T09:27:22.999Z,24.66
2023-06-05T09:29:55.676Z,25.34
2023-06-05T09:32:25.551Z,25.36
2023-06-05T09:35:00.771Z,25.77
2023-06-05T09:37:38.645Z,26.04
2023-06-05T09:40:11.227Z,26.04
2023-06-05T09:42:41.606Z,25.80
2023-06-05T09:45:11.993Z,26.22
2023-06-05T09:47:53.551Z,25.73
2023-06-05T09:50:28.958Z,26.01
2023-06-05T09:53:00.827Z,26.10
2023-06-05T09:55:31.278Z,26.34
2023-06-05T09:58:04.353Z,26.31
2023-06-05T10:00:35.502Z,25.52
2023-06-05T10:03:08.127Z,25.43
2023-06-05T10:05:40.517Z,25.22
2023-06-05T10:08:10.473Z,25.60
2023-06-05T10:10:40.852Z,25.04
2023-06-05T10:13:11.807Z,25.43
2023-06-05T10:15:44.155Z,26.34
2023-06-05T10:18:13.831Z,26.46
2023-06-05T10:20:44.253Z,26.83
2023-06-05T10:23:15.960Z,26.97
2023-06-05T10:25:47.810Z,26.85
2023-06-05T10:28:24.877Z,25.96
2023-06-05T10:31:09.604Z,25.40
2023-06-05T10:33:52.177Z,26.18
2023-06-05T10:36:38.252Z,26.11
2023-06-05T10:39:10.925Z,26.39
2023-06-05T10:41:41.339Z,26.18
2023-06-05T10:44:11.308Z,26.58
2023-06-05T10:46:42.573Z,25.49
2023-06-05T10:49:21.081Z,26.76
2023-06-05T10:51:54.626Z,25.90
2023-06-05T10:54:30.189Z,25.90
2023-06-05T10:57:05.092Z,26.71
2023-06-05T10:59:37.476Z,26.25
2023-06-05T11:02:20.398Z,26.92
2023-06-05T11:04:53.085Z,27.17
2023-06-05T11:07:25.491Z,27.21
2023-06-05T11:10:06.995Z,27.48
2023-06-05T11:12:45.750Z,27.35
2023-06-05T11:15:16.919Z,26.36
2023-06-05T11:17:48.306Z,26.91
2023-06-05T11:20:28.781Z,27.13
2023-06-05T11:23:01.416Z,27.12
2023-06-05T11:25:33.911Z,26.91
2023-06-05T11:28:10.240Z,27.14
2023-06-05T11:30:49.826Z,26.90
2023-06-05T11:33:24.578Z,27.03
2023-06-05T11:35:54.775Z,27.48
2023-06-05T11:38:25.782Z,27.29
2023-06-05T11:40:56.657Z,27.06
2023-06-05T11:43:26.690Z,26.73
2023-06-05T11:45:58.630Z,26.27
2023-06-05T11:48:28.878Z,26.82
2023-06-05T11:51:03.816Z,27.19
2023-06-05T11:53:34.730Z,26.88
2023-06-05T11:56:10.684Z,27.24
2023-06-05T11:58:41.406Z,26.96
2023-06-05T12:01:21.575Z,27.65
2023-06-05T12:04:09.758Z,26.59
2023-06-05T12:06:43.960Z,26.94
2023-06-05T12:09:15.582Z,26.98
2023-06-05T12:11:46.835Z,26.75
2023-06-05T12:14:25.230Z,26.87
2023-06-05T12:16:55.783Z,26.02
2023-06-05T12:19:25.406Z,26.52
2023-06-05T12:21:58.371Z,26.24
2023-06-05T12:24:28.735Z,26.78
2023-06-05T12:27:05.021Z,26.76
2023-06-05T12:29:39.756Z,26.76
2023-06-05T12:32:24.808Z,26.70
2023-06-05T12:35:01.090Z,27.06
2023-06-05T12:37:37.595Z,27.25
2023-06-05T12:40:09.835Z,27.39
2023-06-05T12:42:43.849Z,27.41
2023-06-05T12:45:13.840Z,27.08
2023-06-05T12:47:45.061Z,27.83
2023-06-05T12:50:14.796Z,27.75
2023-06-05T12:52:45.193Z,27.42
2023-06-05T12:55:14.816Z,27.44
2023-06-05T12:57:45.919Z,27.11
2023-06-05T13:00:17.471Z,26.97
2023-06-05T13:02:49.260Z,27.25
2023-06-05T13:05:19.261Z,27.42
2023-06-05T13:07:50.328Z,27.76
2023-06-05T13:10:20.114Z,27.29
2023-06-05T13:12:49.660Z,27.30
2023-06-05T13:15:19.309Z,27.09
2023-06-05T13:17:50.559Z,27.12
2023-06-05T13:20:20.714Z,26.55
2023-06-05T13:22:50.450Z,26.42
2023-06-05T13:25:20.113Z,27.07
2023-06-05T13:27:49.692Z,27.33
2023-06-05T13:30:19.592Z,26.94
2023-06-05T13:32:49.436Z,26.35
2023-06-05T13:35:18.980Z,27.02
2023-06-05T13:37:50.274Z,27.02
2023-06-05T13:40:20.130Z,27.05
2023-06-05T13:42:51.498Z,26.64
2023-06-05T13:45:24.090Z,26.41
2023-06-05T13:47:54.608Z,27.11
2023-06-05T13:50:24.131Z,26.87
2023-06-05T13:52:54.071Z,26.75
2023-06-05T13:55:23.743Z,26.81
2023-06-05T13:57:53.728Z,26.85
2023-06-05T14:00:24.402Z,27.40
2023-06-05T14:02:54.333Z,27.37
2023-06-05T14:05:24.292Z,27.20
2023-06-05T14:07:57.866Z,27.04
2023-06-05T14:10:28.341Z,27.47
2023-06-05T14:12:58.522Z,27.03
2023-06-05T14:15:28.115Z,27.23
2023-06-05T14:17:58.092Z,26.67
2023-06-05T14:20:28.124Z,26.52
2023-06-05T14:22:58.514Z,26.79
2023-06-05T14:25:29.294Z,26.46
2023-06-05T14:27:59.397Z,26.69
2023-06-05T14:30:30.908Z,26.59
2023-06-05T14:33:01.006Z,26.31
2023-06-05T14:35:30.763Z,26.36
2023-06-05T14:38:00.901Z,26.69
2023-06-05T14:40:32.098Z,27.14
2023-06-05T14:43:01.957Z,26.86
2023-06-05T14:45:31.546Z,26.86
2023-06-05T14:48:01.475Z,26.51
2023-06-05T14:50:31.847Z,26.73
2023-06-05T14:53:04.176Z,26.54
2023-06-05T14:55:33.456Z,26.52
2023-06-05T14:58:03.650Z,26.15
2023-06-05T15:00:33.221Z,25.95
2023-06-05T15:03:03.616Z,25.95
2023-06-05T15:05:34.065Z,25.84
2023-06-05T15:08:04.052Z,26.05
2023-06-05T15:10:33.841Z,26.35
2023-06-05T15:13:03.693Z,25.80
2023-06-05T15:15:34.870Z,26.03
2023-06-05T15:18:04.833Z,25.95
2023-06-05T15:20:34.431Z,25.95
2023-06-05T15:25:36.220Z,25.88
2023-06-05T15:28:06.502Z,26.22
2023-06-05T15:30:36.484Z,25.86
2023-06-05T15:33:06.521Z,25.84
2023-06-05T15:35:36.141Z,25.91
2023-06-05T15:38:06.997Z,26.00
2023-06-05T15:40:37.194Z,26.13
2023-06-05T15:43:09.667Z,26.06
2023-06-05T15:45:40.470Z,25.68
2023-06-05T15:48:10.734Z,25.92
2023-06-05T15:50:41.262Z,25.95
2023-06-05T15:53:11.542Z,25.45
2023-06-05T15:55:42.088Z,25.66
2023-06-05T15:58:12.605Z,25.66
2023-06-05T16:00:42.956Z,25.70
2023-06-05T16:03:14.722Z,25.37
2023-06-05T16:05:44.663Z,25.37
2023-06-05T16:08:14.629Z,25.28
2023-06-05T16:10:44.705Z,25.11
2023-06-05T16:13:15.341Z,24.53
2023-06-05T16:15:46.238Z,24.67
2023-06-05T16:18:16.087Z,24.84
2023-06-05T16:20:46.583Z,24.84
2023-06-05T16:23:16.136Z,24.93
2023-06-05T16:25:46.765Z,25.09
2023-06-05T16:28:16.369Z,25.01
2023-06-05T16:30:46.290Z,25.26
2023-06-05T16:33:16.132Z,25.30
2023-06-05T16:35:46.268Z,24.82
2023-06-05T16:38:15.810Z,24.81
2023-06-05T16:40:45.730Z,24.60
2023-06-05T16:43:17.805Z,24.62
2023-06-05T16:45:47.968Z,24.62
2023-06-05T16:48:17.816Z,24.80
2023-06-05T16:50:49.553Z,24.51
2023-06-05T16:53:19.585Z,24.35
2023-06-05T16:55:49.427Z,23.99
2023-06-05T16:58:19.675Z,24.30
2023-06-05T17:00:49.836Z,24.23
2023-06-05T17:03:19.646Z,24.18
2023-06-05T17:05:51.513Z,23.92
2023-06-05T17:08:21.412Z,23.72
2023-06-05T17:10:52.539Z,23.70
2023-06-05T17:13:22.584Z,23.68
2023-06-05T17:15:52.758Z,23.30
2023-06-05T17:18:22.630Z,23.42
2023-06-05T17:20:52.194Z,23.37
2023-06-05T17:23:22.004Z,23.32
2023-06-05T17:25:52.761Z,23.15
2023-06-05T17:28:23.048Z,22.94
2023-06-05T17:30:53.655Z,22.89
2023-06-05T17:33:24.313Z,22.78
2023-06-05T17:35:54.201Z,22.73
2023-06-05T17:38:24.070Z,22.68
2023-06-05T17:40:54.292Z,22.69
2023-06-05T17:43:24.035Z,22.55
2023-06-05T17:45:54.124Z,22.56
2023-06-05T17:48:24.762Z,22.42
2023-06-05T17:50:53.950Z,22.26
2023-06-05T17:53:25.046Z,22.17
2023-06-05T17:55:54.616Z,22.03
2023-06-05T17:58:24.654Z,22.01
2023-06-05T18:00:54.933Z,21.96
2023-06-05T18:03:25.728Z,21.93
2023-06-05T18:05:55.372Z,21.75
2023-06-05T18:08:25.018Z,21.69
2023-06-05T18:10:55.140Z,21.68
2023-06-05T18:13:25.425Z,21.49
2023-06-05T18:15:54.360Z,21.48
2023-06-05T18:18:23.917Z,21.34
2023-06-05T18:20:53.981Z,21.28
2023-06-05T18:23:23.884Z,21.22
2023-06-05T18:25:53.982Z,21.16
2023-06-05T18:28:23.533Z,21.08
2023-06-05T18:30:53.754Z,20.95
2023-06-05T18:33:23.308Z,20.90
2023-06-05T18:35:53.264Z,20.80
2023-06-05T18:38:24.875Z,20.72
2023-06-05T18:40:54.756Z,20.65
2023-06-05T18:43:24.632Z,20.61
2023-06-05T18:45:54.774Z,20.46
2023-06-05T18:48:28.411Z,20.41
2023-06-05T18:50:59.886Z,20.37
2023-06-05T18:53:29.746Z,20.29
2023-06-05T18:55:59.637Z,20.23
2023-06-05T18:58:29.746Z,20.14
2023-06-05T19:00:59.327Z,20.05
2023-06-05T19:03:29.516Z,19.92
2023-06-05T19:05:59.361Z,19.92
2023-06-05T19:08:29.200Z,19.88
2023-06-05T19:10:59.393Z,19.80
2023-06-05T19:13:29.271Z,19.77
2023-06-05T19:15:59.545Z,19.77
2023-06-05T19:18:29.182Z,19.68
2023-06-05T19:21:00.289Z,19.65
2023-06-05T19:23:30.332Z,19.65
2023-06-05T19:26:01.808Z,19.55
2023-06-05T19:28:31.349Z,19.30
2023-06-05T19:31:01.379Z,19.30
2023-06-05T19:33:31.296Z,19.33
2023-06-05T19:36:01.350Z,19.03
2023-06-05T19:38:30.969Z,18.91
2023-06-05T19:41:02.715Z,18.95
2023-06-05T19:43:32.576Z,19.08
2023-06-05T19:46:04.173Z,18.88
2023-06-05T19:48:35.305Z,19.10
2023-06-05T19:51:06.261Z,19.02
2023-06-05T19:53:36.142Z,19.00
2023-06-05T19:56:07.601Z,18.63
2023-06-05T19:58:37.143Z,18.75
2023-06-05T20:01:07.040Z,18.73
2023-06-05T20:03:37.459Z,18.89
2023-06-05T20:06:07.532Z,19.05
2023-06-05T20:08:38.139Z,18.74
2023-06-05T20:11:08.347Z,18.74
2023-06-05T20:13:38.355Z,18.71
2023-06-05T20:16:09.225Z,18.58
2023-06-05T20:18:39.747Z,18.84
2023-06-05T20:21:09.744Z,18.57
2023-06-05T20:23:39.516Z,18.64
2023-06-05T20:26:10.772Z,18.74
2023-06-05T20:28:41.732Z,18.80
2023-06-05T20:31:12.042Z,18.68
2023-06-05T20:33:41.924Z,18.51
2023-06-05T20:36:11.568Z,18.69
2023-06-05T20:38:42.656Z,18.69
2023-06-05T20:41:14.352Z,18.43
2023-06-05T20:43:45.916Z,18.43
2023-06-05T20:46:15.795Z,18.62
2023-06-05T20:48:47.278Z,18.64
2023-06-05T20:51:18.490Z,18.67
2023-06-05T20:53:49.868Z,18.24
2023-06-05T20:56:30.020Z,18.18
2023-06-05T20:59:00.245Z,18.54
2023-06-05T21:01:31.753Z,18.19
2023-06-05T21:04:01.745Z,18.36
2023-06-05T21:06:32.066Z,18.06
2023-06-05T21:09:01.841Z,18.18
2023-06-05T21:11:31.997Z,18.00
2023-06-05T21:14:02.027Z,18.16
2023-06-05T21:16:32.116Z,18.08
2023-06-05T21:19:01.794Z,17.96
2023-06-05T21:21:31.658Z,17.90
2023-06-05T21:24:01.636Z,17.82
2023-06-05T21:26:31.883Z,17.82
2023-06-05T21:29:01.827Z,17.92
2023-06-05T21:31:31.663Z,17.85
2023-06-05T21:34:01.524Z,17.67
2023-06-05T21:36:31.363Z,17.67
2023-06-05T21:39:01.235Z,17.74
2023-06-05T21:41:31.372Z,17.65
2023-06-05T21:44:01.238Z,17.65
2023-06-05T21:46:31.161Z,17.64
2023-06-05T21:49:00.812Z,17.70
2023-06-05T21:51:30.932Z,17.65
2023-06-05T21:54:01.042Z,17.64
2023-06-05T21:56:31.909Z,17.60
2023-06-05T21:59:01.552Z,17.45
2023-06-05T22:01:31.800Z,17.58
2023-06-05T22:04:01.873Z,17.58
2023-06-05T22:06:33.365Z,17.56
2023-06-05T22:09:04.180Z,17.41
2023-06-05T22:11:37.215Z,17.41
2023-06-05T22:14:10.834Z,17.43
2023-06-05T22:16:43.462Z,17.37
2023-06-05T22:19:17.571Z,17.45
2023-06-05T22:21:49.421Z,17.40
2023-06-05T22:24:20.425Z,17.38
2023-06-05T22:26:50.203Z,17.34
2023-06-05T22:29:20.184Z,17.28
2023-06-05T22:31:50.867Z,16.97
2023-06-05T22:34:21.146Z,17.00
2023-06-05T22:36:52.582Z,17.09
2023-06-05T22:39:22.276Z,17.09
2023-06-05T22:41:52.423Z,16.89
2023-06-05T22:44:23.332Z,16.89
2023-06-05T22:46:53.993Z,16.77
2023-06-05T22:49:23.686Z,16.78
2023-06-05T22:51:55.144Z,16.75
2023-06-05T22:54:25.268Z,16.70
2023-06-05T22:56:54.810Z,16.62
2023-06-05T22:59:24.754Z,16.67
2023-06-05T23:01:54.465Z,16.74
2023-06-05T23:04:26.030Z,16.80
2023-06-05T23:06:57.837Z,16.82
2023-06-05T23:09:27.720Z,16.80
2023-06-05T23:11:57.897Z,16.80
2023-06-05T23:14:27.574Z,16.81
2023-06-05T23:16:58.231Z,16.54
2023-06-05T23:19:27.509Z,16.63
2023-06-05T23:21:57.564Z,16.66
2023-06-05T23:24:27.496Z,16.70
2023-06-05T23:26:57.356Z,16.64
2023-06-05T23:29:27.211Z,16.37
2023-06-05T23:31:57.124Z,16.59
2023-06-05T23:34:26.772Z,16.60
2023-06-05T23:36:57.085Z,16.59
2023-06-05T23:39:27.032Z,16.58
2023-06-05T23:41:57.119Z,16.40
2023-06-05T23:44:27.008Z,16.20
2023-06-05T23:46:56.996Z,16.29
2023-06-05T23:49:26.864Z,16.24
2023-06-05T23:51:56.778Z,16.22
2023-06-05T23:54:26.994Z,16.28
2023-06-05T23:56:56.858Z,16.23
2023-06-05T23:59:26.777Z,16.22
